createdAt,value
2022-12-06T00:01:44.610Z,6.10
2022-12-06T00:04:13.529Z,6.10
2022-12-06T00:06:48.165Z,6.10
2022-12-06T00:09:22.635Z,6.00
2022-12-06T00:11:49.709Z,6.10
2022-12-06T00:14:17.502Z,6.10
2022-12-06T00:16:44.352Z,6.10
2022-12-06T00:19:17.049Z,6.10
2022-12-06T00:21:47.616Z,6.10
2022-12-06T00:24:19.946Z,6.10
2022-12-06T00:26:48.355Z,6.10
2022-12-06T00:29:20.894Z,6.10
2022-12-06T00:31:48.350Z,6.00
2022-12-06T00:34:15.089Z,6.00
2022-12-06T00:36:42.874Z,6.10
2022-12-06T00:39:12.026Z,6.10
2022-12-06T00:41:39.337Z,6.10
2022-12-06T00:44:06.606Z,6.10
2022-12-06T00:46:34.201Z,6.10
2022-12-06T00:49:02.907Z,6.10
2022-12-06T00:51:31.548Z,6.10
2022-12-06T00:53:59.271Z,6.10
2022-12-06T00:56:26.689Z,6.10
2022-12-06T00:58:53.422Z,6.10
2022-12-06T01:01:29.378Z,6.10
2022-12-06T01:04:05.011Z,6.10
2022-12-06T01:06:39.038Z,6.10
2022-12-06T01:09:10.634Z,6.10
2022-12-06T01:11:38.424Z,6.00
2022-12-06T01:14:05.471Z,6.00
2022-12-06T01:16:32.465Z,6.00
2022-12-06T01:19:04.377Z,6.00
2022-12-06T01:21:31.431Z,6.00
2022-12-06T01:24:03.320Z,6.00
2022-12-06T01:26:35.536Z,6.00
2022-12-06T01:29:03.990Z,6.00
2022-12-06T01:31:39.378Z,6.00
2022-12-06T01:34:16.032Z,6.00
2022-12-06T01:36:43.129Z,6.00
2022-12-06T01:39:13.145Z,6.00
2022-12-06T01:41:40.010Z,6.00
2022-12-06T01:44:07.791Z,6.00
2022-12-06T01:46:44.550Z,6.00
2022-12-06T01:49:19.382Z,6.00
2022-12-06T01:52:01.911Z,6.00
2022-12-06T01:54:29.785Z,6.00
2022-12-06T01:57:02.245Z,6.00
2022-12-06T01:59:37.064Z,6.00
2022-12-06T02:02:04.570Z,6.00
2022-12-06T02:04:32.064Z,6.00
2022-12-06T02:07:00.894Z,6.00
2022-12-06T02:09:29.562Z,6.00
2022-12-06T02:11:56.649Z,6.00
2022-12-06T02:14:28.932Z,6.00
2022-12-06T02:17:22.334Z,5.90
2022-12-06T02:20:23.148Z,6.00
2022-12-06T02:23:08.984Z,6.00
2022-12-06T02:25:57.422Z,6.00
2022-12-06T02:28:58.424Z,5.90
2022-12-06T02:31:44.852Z,5.90
2022-12-06T02:34:33.707Z,5.90
2022-12-06T02:37:51.804Z,5.90
2022-12-06T02:40:29.471Z,5.90
2022-12-06T02:43:03.027Z,5.90
2022-12-06T02:45:37.269Z,5.90
2022-12-06T02:48:09.565Z,5.90
2022-12-06T02:50:43.408Z,5.90
2022-12-06T02:53:14.911Z,5.90
2022-12-06T02:55:42.495Z,5.90
2022-12-06T02:58:12.542Z,5.90
2022-12-06T03:01:04.207Z,5.90
2022-12-06T03:03:48.776Z,5.90
2022-12-06T03:06:48.692Z,5.90
2022-12-06T03:09:24.346Z,5.90
2022-12-06T03:12:10.641Z,5.90
2022-12-06T03:15:10.957Z,5.90
2022-12-06T03:17:57.680Z,5.90
2022-12-06T03:20:28.868Z,5.90
2022-12-06T03:23:02.757Z,5.90
2022-12-06T03:25:30.218Z,5.90
2022-12-06T03:27:58.843Z,5.90
2022-12-06T03:30:28.039Z,5.90
2022-12-06T03:32:57.627Z,5.90
2022-12-06T03:35:29.557Z,5.90
2022-12-06T03:38:04.400Z,5.90
2022-12-06T03:40:37.634Z,5.90
2022-12-06T03:43:05.353Z,5.90
2022-12-06T03:46:15.126Z,5.80
2022-12-06T03:48:49.331Z,5.80
2022-12-06T03:51:22.125Z,5.80
2022-12-06T03:53:53.705Z,5.80
2022-12-06T03:56:24.007Z,5.80
2022-12-06T03:58:51.303Z,5.80
2022-12-06T04:01:18.395Z,5.80
2022-12-06T04:03:52.996Z,5.80
2022-12-06T04:06:19.690Z,5.80
2022-12-06T04:08:46.690Z,5.80
2022-12-06T04:11:13.422Z,5.80
2022-12-06T04:13:42.902Z,5.80
2022-12-06T04:16:36.275Z,5.80
2022-12-06T04:19:03.059Z,5.80
2022-12-06T04:21:48.536Z,5.80
2022-12-06T04:24:18.594Z,5.80
2022-12-06T04:26:45.251Z,5.80
2022-12-06T04:29:30.516Z,5.80
2022-12-06T04:32:18.762Z,5.80
2022-12-06T04:35:05.116Z,5.80
2022-12-06T04:37:50.882Z,5.80
2022-12-06T04:40:17.499Z,5.80
2022-12-06T04:43:03.208Z,5.70
2022-12-06T04:45:30.117Z,5.70
2022-12-06T04:47:59.310Z,5.70
2022-12-06T04:50:25.958Z,5.70
2022-12-06T04:52:52.674Z,5.70
2022-12-06T04:55:19.597Z,5.70
2022-12-06T04:57:46.821Z,5.70
2022-12-06T05:00:14.026Z,5.70
2022-12-06T05:02:49.500Z,5.70
2022-12-06T05:05:16.256Z,5.70
2022-12-06T05:07:42.970Z,5.70
2022-12-06T05:10:10.159Z,5.70
2022-12-06T05:12:39.908Z,5.70
2022-12-06T05:15:06.972Z,5.70
2022-12-06T05:17:33.860Z,5.70
2022-12-06T05:20:07.271Z,5.70
2022-12-06T05:22:39.132Z,5.70
2022-12-06T05:25:06.805Z,5.70
2022-12-06T05:27:36.095Z,5.70
2022-12-06T05:30:04.112Z,5.70
2022-12-06T05:32:30.748Z,5.70
2022-12-06T05:34:59.553Z,5.70
2022-12-06T05:37:32.373Z,5.70
2022-12-06T05:40:02.838Z,5.70
2022-12-06T05:42:29.779Z,5.70
2022-12-06T05:44:56.692Z,5.70
2022-12-06T05:47:23.394Z,5.70
2022-12-06T05:49:51.365Z,5.70
2022-12-06T05:52:21.192Z,5.70
2022-12-06T05:54:47.899Z,5.70
2022-12-06T05:57:17.615Z,5.70
2022-12-06T05:59:44.567Z,5.70
2022-12-06T06:02:11.272Z,5.70
2022-12-06T06:04:45.180Z,5.70
2022-12-06T06:07:14.366Z,5.70
2022-12-06T06:09:41.713Z,5.70
2022-12-06T06:12:12.838Z,5.70
2022-12-06T06:14:39.826Z,5.70
2022-12-06T06:17:07.401Z,5.70
2022-12-06T06:19:34.171Z,5.70
2022-12-06T06:22:01.106Z,5.70
2022-12-06T06:24:28.067Z,5.60
2022-12-06T06:26:54.659Z,5.60
2022-12-06T06:29:21.570Z,5.60
2022-12-06T06:31:51.395Z,5.60
2022-12-06T06:34:18.407Z,5.60
2022-12-06T06:36:46.089Z,5.60
2022-12-06T06:39:13.198Z,5.60
2022-12-06T06:41:40.440Z,5.60
2022-12-06T06:44:10.402Z,5.60
2022-12-06T06:46:40.474Z,5.60
2022-12-06T06:49:07.572Z,5.60
2022-12-06T06:51:34.501Z,5.60
2022-12-06T06:54:01.235Z,5.60
2022-12-06T06:56:28.022Z,5.60
2022-12-06T06:58:55.042Z,5.60
2022-12-06T07:01:23.563Z,5.60
2022-12-06T07:03:51.960Z,5.60
2022-12-06T07:06:19.405Z,5.60
2022-12-06T07:08:46.675Z,5.60
2022-12-06T07:11:16.491Z,5.60
2022-12-06T07:13:48.226Z,5.60
2022-12-06T07:16:19.224Z,5.60
2022-12-06T07:18:47.761Z,5.60
2022-12-06T07:21:27.204Z,5.60
2022-12-06T07:23:53.865Z,5.60
2022-12-06T07:26:25.749Z,5.60
2022-12-06T07:29:01.131Z,5.60
2022-12-06T07:31:33.558Z,5.60
2022-12-06T07:34:02.302Z,5.60
2022-12-06T07:36:32.338Z,5.60
2022-12-06T07:39:00.171Z,5.60
2022-12-06T07:41:48.068Z,5.60
2022-12-06T07:44:35.402Z,5.60
2022-12-06T07:47:08.387Z,5.60
2022-12-06T07:49:35.132Z,5.60
2022-12-06T07:52:02.394Z,5.60
2022-12-06T07:54:29.107Z,5.60
2022-12-06T07:56:58.562Z,5.60
2022-12-06T07:59:25.473Z,5.60
2022-12-06T08:02:01.551Z,5.60
2022-12-06T08:04:28.293Z,5.60
2022-12-06T08:06:58.233Z,5.60
2022-12-06T08:09:34.318Z,5.60
2022-12-06T08:12:01.060Z,5.60
2022-12-06T08:14:27.990Z,5.60
2022-12-06T08:16:54.682Z,5.60
2022-12-06T08:19:21.452Z,5.60
2022-12-06T08:21:54.224Z,5.60
2022-12-06T08:24:21.971Z,5.60
2022-12-06T08:26:49.754Z,5.60
2022-12-06T08:29:16.971Z,5.60
2022-12-06T08:31:45.484Z,5.60
2022-12-06T08:34:13.753Z,5.60
2022-12-06T08:36:41.312Z,5.60
2022-12-06T08:39:09.210Z,5.60
2022-12-06T08:41:54.462Z,5.60
2022-12-06T08:44:26.968Z,5.60
2022-12-06T08:46:58.638Z,5.60
2022-12-06T08:49:26.320Z,5.60
2022-12-06T08:51:53.700Z,5.60
2022-12-06T08:54:23.415Z,5.60
2022-12-06T08:56:51.165Z,5.50
2022-12-06T08:59:21.433Z,5.60
2022-12-06T09:01:48.176Z,5.60
2022-12-06T09:04:17.701Z,5.60
2022-12-06T09:06:46.139Z,5.60
2022-12-06T09:09:14.601Z,5.60
2022-12-06T09:11:42.450Z,5.60
2022-12-06T09:14:16.396Z,5.60
2022-12-06T09:16:55.921Z,5.60
2022-12-06T09:19:22.640Z,5.60
2022-12-06T09:21:49.394Z,5.60
2022-12-06T09:24:20.424Z,5.60
2022-12-06T09:26:47.518Z,5.60
2022-12-06T09:29:15.538Z,5.60
2022-12-06T09:31:42.262Z,5.60
2022-12-06T09:34:10.179Z,5.60
2022-12-06T09:36:57.824Z,5.60
2022-12-06T09:39:39.243Z,5.60
2022-12-06T09:42:33.866Z,5.60
2022-12-06T09:45:44.796Z,5.60
2022-12-06T09:48:45.662Z,5.60
2022-12-06T09:51:47.841Z,5.60
2022-12-06T09:54:52.569Z,5.60
2022-12-06T09:57:42.833Z,5.60
2022-12-06T10:00:19.304Z,5.60
2022-12-06T10:02:51.963Z,5.60
2022-12-06T10:05:42.235Z,5.60
2022-12-06T10:08:30.188Z,5.60
2022-12-06T10:11:02.706Z,5.60
2022-12-06T10:14:02.660Z,5.60
2022-12-06T10:16:29.584Z,5.60
2022-12-06T10:19:36.377Z,5.60
2022-12-06T10:22:14.274Z,5.60
2022-12-06T10:25:04.249Z,5.60
2022-12-06T10:28:08.196Z,5.60
2022-12-06T10:30:40.228Z,5.60
2022-12-06T10:33:30.119Z,5.60
2022-12-06T10:36:01.755Z,5.60
2022-12-06T10:38:35.989Z,5.60
2022-12-06T10:41:24.141Z,5.60
2022-12-06T10:44:02.118Z,5.60
2022-12-06T10:47:21.243Z,5.60
2022-12-06T10:49:47.863Z,5.60
2022-12-06T10:52:20.968Z,5.60
2022-12-06T10:55:02.370Z,5.60
2022-12-06T10:57:57.359Z,5.60
2022-12-06T11:00:28.527Z,5.60
2022-12-06T11:03:19.166Z,5.60
2022-12-06T11:06:25.818Z,5.60
2022-12-06T11:08:57.358Z,5.60
2022-12-06T11:11:32.684Z,5.60
2022-12-06T11:14:21.758Z,5.60
2022-12-06T11:17:16.388Z,5.60
2022-12-06T11:20:00.490Z,5.60
2022-12-06T11:23:07.340Z,5.60
2022-12-06T11:25:55.750Z,5.60
2022-12-06T11:28:37.506Z,5.60
2022-12-06T11:31:32.176Z,5.60
2022-12-06T11:34:02.470Z,5.60
2022-12-06T11:36:33.154Z,5.60
2022-12-06T11:39:02.916Z,5.60
2022-12-06T11:41:37.076Z,5.60
2022-12-06T11:44:04.082Z,5.60
2022-12-06T11:46:32.981Z,5.60
2022-12-06T11:49:26.714Z,5.60
2022-12-06T11:51:54.373Z,5.60
2022-12-06T11:54:34.796Z,5.60
2022-12-06T11:57:17.938Z,5.60
2022-12-06T12:00:08.613Z,5.70
2022-12-06T12:02:35.733Z,5.60
2022-12-06T12:05:46.447Z,5.60
2022-12-06T12:08:19.265Z,5.60
2022-12-06T12:10:57.460Z,5.60
2022-12-06T12:13:45.428Z,5.60
2022-12-06T12:16:20.356Z,5.60
2022-12-06T12:19:15.856Z,5.60
2022-12-06T12:21:48.496Z,5.60
2022-12-06T12:25:18.310Z,5.60
2022-12-06T12:27:47.159Z,5.60
2022-12-06T12:30:39.357Z,5.50
2022-12-06T12:33:06.203Z,5.60
2022-12-06T12:35:37.421Z,5.50
2022-12-06T12:38:16.364Z,5.50
2022-12-06T12:40:56.474Z,5.60
2022-12-06T12:43:30.322Z,5.50
2022-12-06T12:46:19.970Z,5.50
2022-12-06T12:48:48.884Z,5.50
2022-12-06T12:51:34.582Z,5.60
2022-12-06T12:54:06.607Z,5.50
2022-12-06T12:56:38.123Z,5.50
2022-12-06T12:59:15.198Z,5.50
2022-12-06T13:02:09.934Z,5.50
2022-12-06T13:04:38.800Z,5.50
2022-12-06T13:07:15.464Z,5.50
2022-12-06T13:09:52.889Z,5.50
2022-12-06T13:12:37.360Z,5.50
2022-12-06T13:15:24.414Z,5.50
2022-12-06T13:18:00.201Z,5.50
2022-12-06T13:20:30.174Z,5.50
2022-12-06T13:23:05.065Z,5.50
2022-12-06T13:28:21.521Z,5.50
2022-12-06T13:31:03.557Z,5.50
2022-12-06T13:33:34.068Z,5.50
2022-12-06T13:36:06.005Z,5.50
2022-12-06T13:38:35.728Z,5.50
2022-12-06T13:41:04.858Z,5.50
2022-12-06T13:43:35.092Z,5.50
2022-12-06T13:46:26.213Z,5.50
2022-12-06T13:48:59.945Z,5.50
2022-12-06T13:51:32.981Z,5.50
2022-12-06T13:54:05.789Z,5.50
2022-12-06T13:56:35.583Z,5.40
2022-12-06T13:59:05.405Z,5.40
2022-12-06T14:01:46.873Z,5.40
2022-12-06T14:09:52.031Z,5.40
2022-12-06T14:12:20.416Z,5.40
2022-12-06T14:15:02.391Z,5.40
2022-12-06T14:20:34.521Z,5.40
2022-12-06T14:23:01.644Z,5.40
2022-12-06T14:25:31.224Z,5.40
2022-12-06T14:28:04.876Z,5.30
2022-12-06T14:30:34.155Z,5.30
2022-12-06T14:33:01.080Z,5.30
2022-12-06T14:35:40.444Z,5.30
2022-12-06T14:38:27.831Z,5.30
2022-12-06T14:41:13.606Z,5.30
2022-12-06T14:43:42.001Z,5.30
2022-12-06T14:46:13.210Z,5.30
2022-12-06T14:48:58.807Z,5.30
2022-12-06T14:51:36.703Z,5.30
2022-12-06T14:54:29.750Z,5.30
2022-12-06T14:56:56.530Z,5.30
2022-12-06T15:00:03.158Z,5.30
2022-12-06T15:02:30.191Z,5.30
2022-12-06T15:04:57.859Z,5.30
2022-12-06T15:07:41.615Z,5.20
2022-12-06T15:10:22.588Z,5.30
2022-12-06T15:13:13.595Z,5.20
2022-12-06T15:15:46.127Z,5.20
2022-12-06T15:18:37.737Z,5.20
2022-12-06T15:21:30.677Z,5.20
2022-12-06T15:23:57.762Z,5.20
2022-12-06T15:26:25.121Z,5.20
2022-12-06T15:28:59.548Z,5.20
2022-12-06T15:31:35.553Z,5.20
2022-12-06T15:34:04.744Z,5.20
2022-12-06T15:36:33.155Z,5.20
2022-12-06T15:38:59.804Z,5.20
2022-12-06T15:41:28.318Z,5.20
2022-12-06T15:43:57.381Z,5.20
2022-12-06T15:46:29.539Z,5.20
2022-12-06T15:48:58.972Z,5.20
2022-12-06T15:51:27.858Z,5.20
2022-12-06T15:53:56.768Z,5.20
2022-12-06T15:56:25.875Z,5.10
2022-12-06T15:58:52.847Z,5.20
2022-12-06T16:01:28.666Z,5.10
2022-12-06T16:03:58.744Z,5.10
2022-12-06T16:06:31.471Z,5.10
2022-12-06T16:08:58.162Z,5.10
2022-12-06T16:11:26.617Z,5.10
2022-12-06T16:13:56.438Z,5.10
2022-12-06T16:16:26.617Z,5.10
2022-12-06T16:18:55.073Z,5.10
2022-12-06T16:21:32.980Z,5.10
2022-12-06T16:24:16.504Z,5.10
2022-12-06T16:26:45.328Z,5.10
2022-12-06T16:29:18.630Z,5.10
2022-12-06T16:31:45.547Z,5.10
2022-12-06T16:34:13.679Z,5.10
2022-12-06T16:37:01.291Z,5.10
2022-12-06T16:39:29.613Z,5.10
2022-12-06T16:42:04.074Z,5.10
2022-12-06T16:44:33.904Z,5.10
2022-12-06T16:47:00.736Z,5.10
2022-12-06T16:49:48.351Z,5.10
2022-12-06T16:52:15.638Z,5.10
2022-12-06T16:54:44.983Z,5.10
2022-12-06T16:57:13.457Z,5.00
2022-12-06T16:59:41.906Z,5.10
2022-12-06T17:02:29.181Z,5.10
2022-12-06T17:04:57.215Z,5.10
2022-12-06T17:07:23.969Z,5.10
2022-12-06T17:09:53.230Z,5.10
2022-12-06T17:12:20.446Z,5.10
2022-12-06T17:14:47.592Z,5.00
2022-12-06T17:17:16.222Z,5.10
2022-12-06T17:19:43.354Z,5.00
2022-12-06T17:22:11.195Z,5.10
2022-12-06T17:24:41.044Z,5.10
2022-12-06T17:27:14.144Z,5.10
2022-12-06T17:29:41.248Z,5.10
2022-12-06T17:32:11.811Z,5.10
2022-12-06T17:34:41.595Z,5.10
2022-12-06T17:37:08.341Z,5.10
2022-12-06T17:39:35.545Z,5.10
2022-12-06T17:42:24.974Z,5.10
2022-12-06T17:44:52.219Z,5.10
2022-12-06T17:47:19.179Z,5.10
2022-12-06T17:49:46.250Z,5.10
2022-12-06T17:52:13.419Z,5.10
2022-12-06T17:54:40.143Z,5.10
2022-12-06T17:59:48.401Z,5.10
2022-12-06T18:02:18.864Z,5.10
2022-12-06T18:04:47.506Z,5.10
2022-12-06T18:07:15.440Z,5.10
2022-12-06T18:09:44.653Z,5.10
2022-12-06T18:12:20.428Z,5.10
2022-12-06T18:14:50.368Z,5.10
2022-12-06T18:17:20.082Z,5.10
2022-12-06T18:19:49.971Z,5.10
2022-12-06T18:22:22.824Z,5.10
2022-12-06T18:24:55.980Z,5.10
2022-12-06T18:27:25.752Z,5.10
2022-12-06T18:29:52.419Z,5.10
2022-12-06T18:32:19.505Z,5.10
2022-12-06T18:34:46.181Z,5.10
2022-12-06T18:37:12.836Z,5.10
2022-12-06T18:39:39.541Z,5.10
2022-12-06T18:42:06.295Z,5.10
2022-12-06T18:44:33.055Z,5.10
2022-12-06T18:47:00.162Z,5.10
2022-12-06T18:49:26.874Z,5.10
2022-12-06T18:51:53.576Z,5.10
2022-12-06T18:54:23.549Z,5.10
2022-12-06T18:56:50.238Z,5.10
2022-12-06T18:59:16.954Z,5.10
2022-12-06T19:01:43.958Z,5.10
2022-12-06T19:04:16.404Z,5.10
2022-12-06T19:06:44.588Z,5.10
2022-12-06T19:09:14.865Z,5.10
2022-12-06T19:11:43.716Z,5.10
2022-12-06T19:14:10.781Z,5.10
2022-12-06T19:16:43.172Z,5.10
2022-12-06T19:19:16.294Z,5.10
2022-12-06T19:21:45.074Z,5.10
2022-12-06T19:24:14.125Z,5.10
2022-12-06T19:26:40.929Z,5.10
2022-12-06T19:29:07.746Z,5.10
2022-12-06T19:31:34.980Z,5.10
2022-12-06T19:34:04.889Z,5.10
2022-12-06T19:36:34.594Z,5.10
2022-12-06T19:39:04.318Z,5.10
2022-12-06T19:41:30.998Z,5.10
2022-12-06T19:44:16.468Z,5.10
2022-12-06T19:46:45.658Z,5.10
2022-12-06T19:49:14.179Z,5.10
2022-12-06T19:51:46.067Z,5.10
2022-12-06T19:54:22.367Z,5.10
2022-12-06T19:56:51.797Z,5.10
2022-12-06T19:59:18.882Z,5.10
2022-12-06T20:01:48.003Z,5.10
2022-12-06T20:04:33.643Z,5.10
2022-12-06T20:07:01.403Z,5.10
2022-12-06T20:09:30.040Z,5.10
2022-12-06T20:12:02.676Z,5.10
2022-12-06T20:14:36.948Z,5.10
2022-12-06T20:17:09.006Z,5.10
2022-12-06T20:19:36.195Z,5.10
2022-12-06T20:22:03.094Z,5.10
2022-12-06T20:24:30.203Z,5.10
2022-12-06T20:26:56.931Z,5.10
2022-12-06T20:29:23.620Z,5.10
2022-12-06T20:31:51.309Z,5.10
2022-12-06T20:34:18.715Z,5.10
2022-12-06T20:36:46.790Z,5.10
2022-12-06T20:39:19.479Z,5.10
2022-12-06T20:41:46.749Z,5.10
2022-12-06T20:44:13.380Z,5.10
2022-12-06T20:46:40.484Z,5.10
2022-12-06T20:49:07.360Z,5.10
2022-12-06T20:51:34.350Z,5.10
2022-12-06T20:54:03.907Z,5.10
2022-12-06T20:56:33.734Z,5.10
2022-12-06T20:59:02.468Z,5.10
2022-12-06T21:01:37.256Z,5.10
2022-12-06T21:04:04.032Z,5.10
2022-12-06T21:06:30.993Z,5.10
2022-12-06T21:09:03.054Z,5.10
2022-12-06T21:11:30.271Z,5.10
2022-12-06T21:13:57.996Z,5.10
2022-12-06T21:16:28.995Z,5.10
2022-12-06T21:19:08.225Z,5.10
2022-12-06T21:21:37.810Z,5.10
2022-12-06T21:24:11.257Z,5.10
2022-12-06T21:26:38.369Z,5.10
2022-12-06T21:29:05.586Z,5.10
2022-12-06T21:31:35.709Z,5.10
2022-12-06T21:34:03.278Z,5.10
2022-12-06T21:39:15.692Z,5.10
2022-12-06T21:41:49.977Z,5.10
2022-12-06T21:44:16.991Z,5.10
2022-12-06T21:46:43.716Z,5.10
2022-12-06T21:49:10.870Z,5.10
2022-12-06T21:51:40.871Z,5.10
2022-12-06T21:54:07.686Z,5.10
2022-12-06T21:56:37.380Z,5.10
2022-12-06T21:59:04.422Z,5.10
2022-12-06T22:01:31.641Z,5.10
2022-12-06T22:04:06.188Z,5.10
2022-12-06T22:06:39.192Z,5.10
2022-12-06T22:09:08.833Z,5.10
2022-12-06T22:11:38.269Z,5.10
2022-12-06T22:14:05.407Z,5.10
2022-12-06T22:16:32.715Z,5.10
2022-12-06T22:18:59.514Z,5.10
2022-12-06T22:21:37.358Z,5.10
2022-12-06T22:24:04.343Z,5.10
2022-12-06T22:26:31.337Z,5.10
2022-12-06T22:29:00.395Z,5.10
2022-12-06T22:31:35.394Z,5.10
2022-12-06T22:34:02.815Z,5.10
2022-12-06T22:36:32.592Z,5.10
2022-12-06T22:39:04.905Z,5.10
2022-12-06T22:41:32.545Z,5.00
2022-12-06T22:44:02.075Z,5.10
2022-12-06T22:46:31.479Z,5.10
2022-12-06T22:49:04.469Z,5.10
2022-12-06T22:51:33.683Z,5.10
2022-12-06T22:54:11.490Z,5.10
2022-12-06T22:56:40.621Z,5.10
2022-12-06T22:59:09.320Z,5.10
2022-12-06T23:01:39.255Z,5.10
2022-12-06T23:04:07.617Z,5.10
2022-12-06T23:06:42.890Z,5.10
2022-12-06T23:09:18.136Z,5.10
2022-12-06T23:11:47.961Z,5.10
2022-12-06T23:14:24.042Z,5.10
2022-12-06T23:16:53.626Z,5.10
2022-12-06T23:19:20.612Z,5.00
2022-12-06T23:21:47.477Z,5.10
2022-12-06T23:24:14.835Z,5.10
2022-12-06T23:26:49.786Z,5.10
2022-12-06T23:29:19.940Z,5.10
2022-12-06T23:31:47.266Z,5.10
2022-12-06T23:34:17.978Z,5.00
2022-12-06T23:36:44.960Z,5.00
2022-12-06T23:39:12.379Z,5.10
2022-12-06T23:41:48.030Z,5.10
2022-12-06T23:44:14.984Z,5.10
2022-12-06T23:46:43.194Z,5.10
2022-12-06T23:49:18.857Z,5.10
2022-12-06T23:51:46.373Z,5.10
2022-12-06T23:54:15.184Z,5.10
2022-12-06T23:56:45.347Z,5.10
2022-12-06T23:59:16.798Z,5.10
